createdAt,value
2018-08-20T00:02:05.774Z,26.52
2018-08-20T00:04:39.607Z,26.67
2018-08-20T00:07:08.182Z,26.74
2018-08-20T00:09:41.959Z,26.82
2018-08-20T00:12:10.786Z,26.82
2018-08-20T00:14:39.328Z,26.79
2018-08-20T00:17:08.159Z,26.68
2018-08-20T00:19:36.700Z,26.75
2018-08-20T00:22:06.421Z,26.43
2018-08-20T00:24:34.998Z,26.48
2018-08-20T00:27:03.739Z,26.62
2018-08-20T00:29:35.687Z,26.68
2018-08-20T00:32:05.393Z,26.58
2018-08-20T00:34:33.973Z,26.64
2018-08-20T00:37:02.493Z,26.67
2018-08-20T00:39:31.329Z,26.67
2018-08-20T00:41:59.927Z,26.65
2018-08-20T00:44:28.510Z,26.54
2018-08-20T00:46:57.188Z,26.59
2018-08-20T00:49:25.983Z,26.59
2018-08-20T00:51:54.575Z,26.60
2018-08-20T00:54:23.287Z,26.57
2018-08-20T00:56:52.460Z,26.55
2018-08-20T00:59:21.099Z,26.56
2018-08-20T01:01:49.685Z,26.41
2018-08-20T01:04:19.269Z,26.46
2018-08-20T01:06:47.877Z,26.18
2018-08-20T01:09:16.563Z,26.11
2018-08-20T01:11:45.137Z,26.22
2018-08-20T01:14:14.011Z,26.27
2018-08-20T01:16:42.582Z,26.28
2018-08-20T01:19:11.221Z,26.11
2018-08-20T01:21:39.831Z,26.04
2018-08-20T01:24:08.710Z,25.56
2018-08-20T01:26:37.305Z,25.42
2018-08-20T01:29:05.822Z,25.33
2018-08-20T01:31:34.324Z,25.12
2018-08-20T01:34:03.933Z,25.02
2018-08-20T01:36:32.634Z,24.84
2018-08-20T01:39:01.289Z,25.00
2018-08-20T01:41:30.171Z,25.21
2018-08-20T01:43:58.723Z,25.39
2018-08-20T01:46:27.230Z,25.33
2018-08-20T01:48:55.915Z,25.36
2018-08-20T01:51:24.745Z,25.48
2018-08-20T01:53:53.623Z,25.44
2018-08-20T01:56:22.161Z,25.49
2018-08-20T01:58:50.979Z,25.61
2018-08-20T02:01:19.838Z,25.65
2018-08-20T02:03:48.388Z,25.54
2018-08-20T02:06:16.995Z,25.20
2018-08-20T02:08:45.759Z,25.21
2018-08-20T02:11:14.251Z,25.35
2018-08-20T02:13:42.808Z,25.45
2018-08-20T02:16:11.328Z,25.41
2018-08-20T02:18:40.199Z,25.34
2018-08-20T02:21:08.804Z,25.38
2018-08-20T02:23:37.334Z,25.33
2018-08-20T02:26:06.273Z,25.34
2018-08-20T02:28:34.873Z,25.26
2018-08-20T02:31:03.422Z,25.19
2018-08-20T02:33:32.047Z,25.14
2018-08-20T02:36:02.931Z,25.10
2018-08-20T02:38:31.683Z,24.93
2018-08-20T02:41:00.212Z,24.88
2018-08-20T02:43:28.997Z,24.65
2018-08-20T02:45:57.482Z,24.47
2018-08-20T02:48:26.165Z,24.57
2018-08-20T02:50:54.663Z,24.63
2018-08-20T02:53:23.596Z,24.58
2018-08-20T02:55:52.111Z,24.56
2018-08-20T02:58:21.420Z,24.58
2018-08-20T03:00:50.025Z,24.46
2018-08-20T03:03:19.063Z,24.41
2018-08-20T03:05:47.601Z,24.27
2018-08-20T03:08:16.138Z,24.18
2018-08-20T03:10:44.669Z,24.15
2018-08-20T03:13:13.180Z,24.06
2018-08-20T03:15:41.682Z,24.12
2018-08-20T03:18:10.999Z,24.14
2018-08-20T03:20:39.517Z,23.83
2018-08-20T03:23:08.114Z,23.67
2018-08-20T03:25:36.931Z,23.76
2018-08-20T03:28:06.690Z,23.81
2018-08-20T03:30:35.323Z,23.86
2018-08-20T03:33:04.417Z,23.93
2018-08-20T03:35:32.958Z,23.98
2018-08-20T03:38:01.509Z,23.88
2018-08-20T03:40:30.388Z,23.93
2018-08-20T03:42:58.932Z,23.92
2018-08-20T03:45:27.423Z,23.93
2018-08-20T03:47:56.212Z,23.90
2018-08-20T03:50:24.815Z,23.89
2018-08-20T03:52:53.351Z,23.88
2018-08-20T03:55:21.964Z,23.92
2018-08-20T03:57:50.556Z,23.93
2018-08-20T04:00:23.292Z,23.85
2018-08-20T04:02:53.444Z,23.70
2018-08-20T04:05:22.055Z,23.56
2018-08-20T04:07:50.595Z,23.44
2018-08-20T04:10:20.143Z,23.51
2018-08-20T04:12:48.681Z,23.52
2018-08-20T04:15:17.229Z,23.55
2018-08-20T04:17:45.770Z,23.61
2018-08-20T04:20:14.593Z,23.56
2018-08-20T04:22:43.089Z,23.14
2018-08-20T04:25:22.661Z,22.90
2018-08-20T04:27:51.328Z,22.44
2018-08-20T04:30:20.299Z,22.58
2018-08-20T04:32:48.861Z,22.69
2018-08-20T04:35:20.097Z,22.72
2018-08-20T04:37:48.639Z,22.86
2018-08-20T04:40:18.147Z,22.75
2018-08-20T04:42:46.696Z,22.81
2018-08-20T04:45:15.335Z,22.86
2018-08-20T04:47:43.925Z,22.91
2018-08-20T04:50:12.925Z,22.98
2018-08-20T04:52:41.778Z,23.02
2018-08-20T04:55:10.351Z,22.93
2018-08-20T04:57:39.174Z,22.72
2018-08-20T05:00:09.707Z,22.85
2018-08-20T05:02:38.938Z,22.68
2018-08-20T05:05:07.624Z,22.62
2018-08-20T05:07:36.292Z,22.52
2018-08-20T05:10:05.815Z,22.68
2018-08-20T05:12:34.677Z,22.71
2018-08-20T05:15:03.829Z,22.71
2018-08-20T05:17:32.795Z,22.74
2018-08-20T05:20:02.367Z,22.70
2018-08-20T05:22:31.529Z,22.61
2018-08-20T05:25:00.619Z,22.67
2018-08-20T05:27:29.578Z,22.64
2018-08-20T05:29:58.627Z,22.66
2018-08-20T05:32:28.816Z,22.73
2018-08-20T05:34:58.119Z,22.79
2018-08-20T05:37:27.650Z,22.67
2018-08-20T05:39:57.647Z,22.63
2018-08-20T05:42:26.587Z,22.61
2018-08-20T05:44:56.621Z,22.74
2018-08-20T05:47:25.828Z,22.61
2018-08-20T05:49:54.479Z,22.74
2018-08-20T05:52:23.522Z,22.69
2018-08-20T05:54:52.219Z,22.20
2018-08-20T05:57:20.873Z,22.05
2018-08-20T05:59:49.996Z,22.22
2018-08-20T06:02:19.263Z,22.45
2018-08-20T06:04:47.871Z,22.55
2018-08-20T06:07:17.796Z,22.78
2018-08-20T06:09:53.925Z,23.00
2018-08-20T06:12:23.012Z,23.18
2018-08-20T06:14:52.253Z,23.30
2018-08-20T06:17:20.900Z,23.43
2018-08-20T06:19:49.490Z,23.54
2018-08-20T06:22:18.614Z,23.40
2018-08-20T06:24:47.172Z,23.03
2018-08-20T06:27:16.322Z,23.39
2018-08-20T06:29:45.149Z,23.63
2018-08-20T06:32:13.841Z,23.76
2018-08-20T06:34:42.360Z,23.96
2018-08-20T06:37:11.341Z,23.88
2018-08-20T06:39:39.895Z,24.07
2018-08-20T06:42:08.568Z,24.30
2018-08-20T06:44:37.653Z,24.23
2018-08-20T06:47:06.448Z,24.30
2018-08-20T06:49:34.964Z,24.33
2018-08-20T06:52:04.624Z,24.44
2018-08-20T06:54:39.646Z,24.46
2018-08-20T06:57:08.265Z,24.64
2018-08-20T06:59:36.825Z,24.77
2018-08-20T07:02:06.411Z,24.91
2018-08-20T07:04:35.203Z,24.95
2018-08-20T07:07:03.793Z,25.10
2018-08-20T07:09:32.344Z,25.09
2018-08-20T07:12:00.885Z,24.89
2018-08-20T07:14:30.089Z,25.04
2018-08-20T07:16:59.993Z,25.21
2018-08-20T07:19:28.624Z,25.27
2018-08-20T07:21:57.208Z,25.18
2018-08-20T07:24:26.145Z,25.37
2018-08-20T07:26:54.789Z,25.49
2018-08-20T07:29:41.462Z,25.30
2018-08-20T07:32:11.644Z,25.35
2018-08-20T07:34:42.025Z,25.49
2018-08-20T07:37:12.277Z,25.65
2018-08-20T07:39:43.430Z,25.63
2018-08-20T07:42:12.335Z,25.75
2018-08-20T07:44:46.163Z,25.70
2018-08-20T07:47:20.015Z,25.73
2018-08-20T07:49:48.771Z,25.87
2018-08-20T07:52:17.478Z,25.91
2018-08-20T07:54:46.319Z,25.99
2018-08-20T07:57:14.876Z,25.98
2018-08-20T07:59:43.468Z,26.07
2018-08-20T08:02:12.414Z,26.13
2018-08-20T08:04:41.000Z,26.06
2018-08-20T08:07:09.992Z,26.14
2018-08-20T08:09:38.903Z,26.18
2018-08-20T08:12:09.381Z,25.68
2018-08-20T08:14:37.973Z,25.66
2018-08-20T08:17:07.064Z,26.00
2018-08-20T08:19:35.719Z,26.20
2018-08-20T08:22:04.886Z,26.29
2018-08-20T08:24:33.759Z,26.26
2018-08-20T08:27:02.389Z,26.35
2018-08-20T08:29:31.024Z,26.34
2018-08-20T08:32:00.162Z,26.48
2018-08-20T08:34:28.829Z,26.30
2018-08-20T08:36:57.404Z,26.49
2018-08-20T08:39:26.317Z,26.58
2018-08-20T08:41:54.856Z,26.79
2018-08-20T08:44:23.470Z,26.79
2018-08-20T08:46:52.295Z,26.91
2018-08-20T08:49:20.814Z,27.04
2018-08-20T08:51:49.300Z,27.08
2018-08-20T08:54:18.362Z,27.01
2018-08-20T08:56:46.894Z,26.78
2018-08-20T08:59:15.464Z,26.93
2018-08-20T09:01:44.351Z,27.12
2018-08-20T09:04:12.973Z,27.23
2018-08-20T09:06:41.587Z,27.40
2018-08-20T09:09:10.404Z,27.49
2018-08-20T09:11:39.146Z,27.61
2018-08-20T09:14:07.817Z,27.52
2018-08-20T09:16:36.730Z,27.42
2018-08-20T09:19:05.573Z,26.95
2018-08-20T09:21:34.631Z,27.23
2018-08-20T09:24:04.196Z,27.44
2018-08-20T09:26:32.973Z,27.18
2018-08-20T09:29:01.807Z,27.11
2018-08-20T09:31:30.723Z,27.46
2018-08-20T09:33:59.671Z,27.67
2018-08-20T09:36:28.656Z,27.47
2018-08-20T09:38:57.595Z,27.31
2018-08-20T09:41:26.398Z,27.61
2018-08-20T09:43:56.493Z,28.04
2018-08-20T09:46:25.532Z,28.18
2018-08-20T09:51:31.847Z,28.70
2018-08-20T09:54:00.743Z,28.80
2018-08-20T09:56:29.577Z,29.05
2018-08-20T09:58:58.471Z,29.01
2018-08-20T10:01:27.179Z,29.20
2018-08-20T10:03:56.521Z,29.56
2018-08-20T10:06:25.304Z,29.92
2018-08-20T10:08:53.845Z,30.14
2018-08-20T10:11:22.456Z,29.99
2018-08-20T10:13:51.591Z,29.00
2018-08-20T10:16:20.184Z,29.15
2018-08-20T10:18:49.062Z,29.29
2018-08-20T10:21:19.648Z,29.35
2018-08-20T10:23:48.199Z,29.37
2018-08-20T10:26:16.921Z,29.35
2018-08-20T10:28:45.896Z,29.58
2018-08-20T10:31:16.388Z,29.57
2018-08-20T10:33:45.107Z,29.45
2018-08-20T10:36:13.979Z,29.41
2018-08-20T10:38:42.866Z,29.25
2018-08-20T10:41:11.663Z,28.98
2018-08-20T10:43:40.654Z,28.61
2018-08-20T10:46:14.682Z,28.44
2018-08-20T10:48:43.291Z,28.42
2018-08-20T10:51:11.945Z,28.44
2018-08-20T10:53:41.062Z,28.39
2018-08-20T10:56:09.644Z,28.72
2018-08-20T10:58:38.299Z,28.91
2018-08-20T11:01:07.825Z,29.10
2018-08-20T11:03:36.483Z,28.26
2018-08-20T11:06:05.912Z,28.25
2018-08-20T11:08:34.771Z,27.87
2018-08-20T11:11:03.415Z,27.74
2018-08-20T11:13:32.442Z,27.64
2018-08-20T11:16:01.348Z,27.87
2018-08-20T11:18:30.292Z,28.19
2018-08-20T11:20:58.779Z,28.35
2018-08-20T11:23:27.560Z,28.50
2018-08-20T11:25:56.219Z,28.33
2018-08-20T11:28:24.803Z,28.33
2018-08-20T11:30:54.657Z,28.21
2018-08-20T11:33:23.307Z,28.20
2018-08-20T11:35:51.856Z,28.42
2018-08-20T11:38:20.398Z,28.57
2018-08-20T11:40:48.991Z,28.42
2018-08-20T11:43:17.859Z,28.33
2018-08-20T11:45:46.528Z,28.27
2018-08-20T11:48:15.484Z,28.24
2018-08-20T11:50:44.187Z,28.30
2018-08-20T11:53:12.791Z,28.55
2018-08-20T11:55:41.685Z,28.79
2018-08-20T11:58:10.296Z,28.96
2018-08-20T12:00:39.069Z,29.06
2018-08-20T12:03:08.027Z,29.04
2018-08-20T12:05:36.653Z,29.12
2018-08-20T12:08:06.508Z,29.11
2018-08-20T12:10:35.371Z,29.12
2018-08-20T12:13:03.974Z,29.11
2018-08-20T12:15:32.508Z,29.23
2018-08-20T12:18:03.150Z,29.34
2018-08-20T12:20:31.687Z,29.47
2018-08-20T12:23:00.255Z,29.44
2018-08-20T12:25:29.280Z,29.63
2018-08-20T12:27:57.862Z,29.84
2018-08-20T12:30:26.532Z,30.22
2018-08-20T12:32:55.324Z,30.99
2018-08-20T12:35:23.872Z,31.63
2018-08-20T12:37:52.456Z,32.24
2018-08-20T12:40:21.723Z,32.88
2018-08-20T12:42:50.279Z,32.90
2018-08-20T12:45:18.878Z,32.90
2018-08-20T12:47:47.805Z,32.76
2018-08-20T12:50:16.655Z,32.42
2018-08-20T12:52:45.428Z,32.48
2018-08-20T12:55:14.279Z,32.52
2018-08-20T12:57:43.011Z,32.38
2018-08-20T13:00:11.611Z,32.23
2018-08-20T13:02:40.252Z,32.15
2018-08-20T13:05:08.868Z,32.04
2018-08-20T13:07:37.897Z,32.11
2018-08-20T13:10:06.803Z,31.92
2018-08-20T13:12:35.381Z,31.40
2018-08-20T13:15:04.073Z,30.75
2018-08-20T13:17:32.769Z,31.03
2018-08-20T13:20:02.269Z,30.97
2018-08-20T13:22:30.857Z,31.05
2018-08-20T13:24:59.476Z,31.00
2018-08-20T13:27:28.367Z,31.05
2018-08-20T13:29:56.982Z,30.90
2018-08-20T13:32:25.726Z,30.83
2018-08-20T13:34:54.581Z,30.92
2018-08-20T13:37:23.186Z,31.02
2018-08-20T13:39:51.706Z,31.09
2018-08-20T13:42:20.597Z,31.23
2018-08-20T13:44:49.211Z,31.39
2018-08-20T13:47:17.876Z,31.55
2018-08-20T13:49:47.094Z,32.04
2018-08-20T13:52:16.125Z,33.15
2018-08-20T13:54:44.780Z,34.49
2018-08-20T13:57:13.580Z,35.72
2018-08-20T13:59:42.194Z,36.30
2018-08-20T14:02:10.746Z,37.63
2018-08-20T14:04:39.707Z,38.52
2018-08-20T14:07:08.218Z,39.42
2018-08-20T14:09:36.740Z,39.87
2018-08-20T14:12:05.903Z,40.26
2018-08-20T14:14:34.441Z,37.62
2018-08-20T14:17:03.516Z,36.12
2018-08-20T14:19:32.454Z,36.57
2018-08-20T14:22:01.051Z,38.64
2018-08-20T14:24:29.722Z,39.52
2018-08-20T14:26:58.495Z,39.88
2018-08-20T14:29:27.067Z,35.68
2018-08-20T14:31:55.915Z,34.71
2018-08-20T14:34:24.455Z,35.15
2018-08-20T14:36:53.155Z,35.02
2018-08-20T14:39:21.691Z,33.61
2018-08-20T14:41:50.342Z,33.71
2018-08-20T14:44:19.499Z,33.48
2018-08-20T14:46:48.225Z,33.45
2018-08-20T14:49:16.775Z,34.13
2018-08-20T14:51:45.471Z,35.49
2018-08-20T14:54:14.155Z,35.55
2018-08-20T14:56:43.044Z,36.35
2018-08-20T14:59:11.707Z,36.86
2018-08-20T15:01:40.258Z,38.26
2018-08-20T15:06:59.243Z,36.03
2018-08-20T15:09:28.961Z,35.44
2018-08-20T15:11:57.848Z,34.21
2018-08-20T15:14:26.446Z,35.89
2018-08-20T15:16:55.996Z,33.76
2018-08-20T15:19:24.565Z,34.28
2018-08-20T15:21:53.108Z,34.33
2018-08-20T15:24:21.931Z,33.94
2018-08-20T15:26:50.908Z,33.45
2018-08-20T15:29:20.018Z,33.50
2018-08-20T15:31:48.997Z,33.18
2018-08-20T15:34:18.525Z,33.14
2018-08-20T15:36:47.077Z,33.17
2018-08-20T15:39:15.691Z,32.99
2018-08-20T15:41:44.195Z,32.95
2018-08-20T15:44:13.040Z,32.99
2018-08-20T15:46:41.651Z,32.94
2018-08-20T15:49:10.219Z,32.71
2018-08-20T15:51:38.802Z,32.80
2018-08-20T15:54:07.838Z,32.78
2018-08-20T15:56:36.428Z,33.81
2018-08-20T15:59:05.071Z,34.52
2018-08-20T16:01:34.094Z,34.52
2018-08-20T16:04:04.444Z,34.28
2018-08-20T16:06:33.031Z,34.26
2018-08-20T16:09:01.901Z,34.46
2018-08-20T16:11:30.477Z,34.23
2018-08-20T16:13:59.328Z,33.94
2018-08-20T16:16:28.259Z,33.77
2018-08-20T16:18:57.163Z,33.35
2018-08-20T16:21:25.711Z,33.51
2018-08-20T16:23:54.725Z,33.41
2018-08-20T16:26:23.298Z,33.27
2018-08-20T16:28:51.881Z,33.00
2018-08-20T16:31:20.730Z,32.94
2018-08-20T16:33:49.983Z,33.09
2018-08-20T16:36:19.152Z,33.22
2018-08-20T16:38:48.306Z,33.43
2018-08-20T16:41:16.867Z,33.63
2018-08-20T16:43:45.455Z,33.83
2018-08-20T16:46:14.310Z,33.57
2018-08-20T16:48:43.008Z,33.55
2018-08-20T16:51:11.673Z,33.58
2018-08-20T16:53:40.912Z,33.76
2018-08-20T16:56:10.020Z,33.86
2018-08-20T16:58:38.653Z,33.92
2018-08-20T17:01:16.730Z,33.73
2018-08-20T17:03:45.267Z,33.54
2018-08-20T17:06:14.365Z,33.12
2018-08-20T17:08:43.955Z,33.31
2018-08-20T17:11:13.008Z,33.29
2018-08-20T17:13:42.089Z,33.12
2018-08-20T17:16:12.696Z,33.10
2018-08-20T17:18:41.399Z,33.01
2018-08-20T17:21:10.460Z,32.68
2018-08-20T17:23:39.154Z,32.56
2018-08-20T17:26:08.455Z,32.47
2018-08-20T17:28:37.056Z,32.33
2018-08-20T17:31:12.860Z,32.22
2018-08-20T17:33:41.895Z,32.05
2018-08-20T17:36:10.414Z,31.83
2018-08-20T17:38:39.067Z,31.69
2018-08-20T17:41:09.070Z,31.30
2018-08-20T17:43:37.708Z,31.07
2018-08-20T17:46:06.348Z,30.96
2018-08-20T17:48:35.229Z,30.98
2018-08-20T17:51:03.910Z,30.98
2018-08-20T17:53:43.430Z,30.97
2018-08-20T17:56:12.753Z,30.87
2018-08-20T17:58:41.288Z,30.85
2018-08-20T18:01:09.957Z,30.81
2018-08-20T18:03:38.548Z,30.68
2018-08-20T18:06:08.467Z,30.67
2018-08-20T18:08:37.121Z,30.54
2018-08-20T18:11:06.904Z,30.47
2018-08-20T18:13:47.904Z,30.48
2018-08-20T18:16:17.724Z,30.45
2018-08-20T18:18:50.686Z,30.38
2018-08-20T18:21:20.076Z,30.40
2018-08-20T18:23:50.696Z,30.27
2018-08-20T18:26:30.067Z,30.24
2018-08-20T18:28:58.707Z,30.15
2018-08-20T18:31:28.247Z,30.14
2018-08-20T18:33:56.925Z,30.11
2018-08-20T18:36:26.994Z,30.09
2018-08-20T18:38:59.555Z,30.06
2018-08-20T18:41:48.666Z,30.02
2018-08-20T18:44:17.527Z,29.91
2018-08-20T18:46:46.061Z,29.81
2018-08-20T18:49:14.855Z,29.80
2018-08-20T18:51:43.766Z,29.73
2018-08-20T18:54:12.420Z,29.62
2018-08-20T18:56:41.158Z,29.60
2018-08-20T18:59:10.084Z,29.56
2018-08-20T19:01:38.795Z,29.52
2018-08-20T19:04:07.475Z,29.50
2018-08-20T19:06:39.006Z,29.41
2018-08-20T19:09:10.904Z,29.34
2018-08-20T19:11:39.487Z,29.32
2018-08-20T19:14:12.692Z,29.33
2018-08-20T19:16:41.331Z,29.31
2018-08-20T19:19:09.898Z,29.31
2018-08-20T19:21:41.295Z,29.28
2018-08-20T19:24:10.935Z,29.23
2018-08-20T19:26:39.560Z,29.20
2018-08-20T19:29:19.509Z,29.15
2018-08-20T19:31:48.249Z,29.12
2018-08-20T19:34:17.417Z,29.08
2018-08-20T19:36:45.994Z,29.04
2018-08-20T19:39:14.511Z,29.02
2018-08-20T19:41:43.399Z,28.96
2018-08-20T19:44:11.960Z,28.90
2018-08-20T19:46:40.516Z,28.74
2018-08-20T19:49:10.680Z,28.79
2018-08-20T19:51:41.069Z,28.73
2018-08-20T19:54:11.578Z,28.55
2018-08-20T19:56:40.151Z,28.56
2018-08-20T19:59:09.068Z,28.54
2018-08-20T20:01:38.035Z,28.52
2018-08-20T20:04:06.590Z,28.35
2018-08-20T20:06:35.176Z,28.31
2018-08-20T20:09:08.150Z,28.22
2018-08-20T20:11:45.666Z,28.23
2018-08-20T20:14:14.563Z,28.14
2018-08-20T20:16:48.375Z,28.08
2018-08-20T20:19:17.014Z,28.06
2018-08-20T20:21:45.572Z,28.04
2018-08-20T20:24:14.335Z,28.01
2018-08-20T20:26:43.274Z,27.98
2018-08-20T20:29:12.166Z,27.97
2018-08-20T20:31:41.830Z,28.00
2018-08-20T20:34:10.850Z,27.95
2018-08-20T20:36:39.571Z,27.96
2018-08-20T20:39:10.623Z,27.94
2018-08-20T20:41:39.262Z,27.85
2018-08-20T20:44:08.450Z,27.90
2018-08-20T20:46:37.387Z,27.80
2018-08-20T20:49:06.024Z,27.80
2018-08-20T20:51:34.583Z,27.72
2018-08-20T20:54:04.254Z,27.76
2018-08-20T20:56:32.798Z,27.74
2018-08-20T20:59:01.400Z,27.66
2018-08-20T21:01:30.245Z,27.65
2018-08-20T21:03:58.879Z,27.65
2018-08-20T21:06:27.419Z,27.60
2018-08-20T21:08:58.265Z,27.57
2018-08-20T21:11:26.765Z,27.59
2018-08-20T21:13:55.923Z,27.54
2018-08-20T21:16:25.568Z,27.52
2018-08-20T21:18:55.628Z,27.51
2018-08-20T21:21:24.772Z,27.36
2018-08-20T21:23:53.677Z,27.40
2018-08-20T21:26:22.218Z,27.42
2018-08-20T21:28:51.763Z,27.31
2018-08-20T21:31:21.740Z,27.32
2018-08-20T21:34:03.537Z,27.31
2018-08-20T21:36:32.360Z,27.28
2018-08-20T21:39:00.910Z,27.30
2018-08-20T21:41:30.059Z,27.30
2018-08-20T21:43:58.892Z,27.04
2018-08-20T21:46:27.413Z,27.02
2018-08-20T21:48:55.992Z,27.07
2018-08-20T21:51:26.556Z,27.13
2018-08-20T21:53:55.284Z,27.18
2018-08-20T21:56:23.975Z,27.18
2018-08-20T21:58:52.832Z,27.16
2018-08-20T22:01:21.478Z,27.10
2018-08-20T22:03:50.038Z,27.17
2018-08-20T22:06:19.129Z,27.22
2018-08-20T22:08:47.728Z,27.20
2018-08-20T22:11:16.222Z,27.27
2018-08-20T22:13:44.976Z,27.20
2018-08-20T22:16:19.805Z,27.17
2018-08-20T22:18:53.531Z,27.10
2018-08-20T22:21:22.311Z,27.13
2018-08-20T22:23:50.936Z,27.17
2018-08-20T22:26:20.769Z,27.20
2018-08-20T22:28:51.066Z,27.19
2018-08-20T22:31:19.897Z,27.21
2018-08-20T22:33:55.055Z,27.21
2018-08-20T22:36:24.132Z,27.17
2018-08-20T22:38:53.895Z,27.20
2018-08-20T22:41:23.616Z,27.17
2018-08-20T22:43:52.239Z,27.20
2018-08-20T22:47:50.783Z,27.12
2018-08-20T22:50:19.583Z,27.13
2018-08-20T22:52:49.547Z,27.09
2018-08-20T22:55:19.226Z,27.05
2018-08-20T22:57:59.468Z,27.00
2018-08-20T23:00:28.450Z,27.05
2018-08-20T23:02:57.902Z,27.04
2018-08-20T23:05:29.804Z,26.94
2018-08-20T23:08:07.727Z,26.99
2018-08-20T23:10:40.236Z,26.99
2018-08-20T23:13:08.751Z,27.00
2018-08-20T23:15:37.300Z,26.99
2018-08-20T23:18:06.319Z,26.93
2018-08-20T23:20:34.850Z,26.97
2018-08-20T23:23:03.411Z,26.99
2018-08-20T23:25:32.264Z,26.98
2018-08-20T23:28:00.822Z,26.95
2018-08-20T23:30:29.412Z,26.93
2018-08-20T23:32:58.387Z,26.93
2018-08-20T23:35:26.912Z,26.92
2018-08-20T23:37:55.420Z,26.91
2018-08-20T23:40:24.167Z,26.91
2018-08-20T23:42:52.668Z,26.81
2018-08-20T23:45:21.219Z,26.84
2018-08-20T23:47:49.733Z,26.87
2018-08-20T23:50:19.055Z,26.87
2018-08-20T23:52:47.651Z,26.82
2018-08-20T23:55:16.135Z,26.85
2018-08-20T23:57:44.653Z,26.87
